sensor_id;sensor_type;location;lat;lon;timestamp;temperature;humidity
8067;DHT22;4076;48.076;9.118;2023-02-21T00:02:43;0.50;99.90
8067;DHT22;4076;48.076;9.118;2023-02-21T00:05:27;0.50;99.90
8067;DHT22;4076;48.076;9.118;2023-02-21T00:08:11;0.40;99.90
8067;DHT22;4076;48.076;9.118;2023-02-21T00:10:56;0.50;99.90
8067;DHT22;4076;48.076;9.118;2023-02-21T00:13:39;0.50;99.90
8067;DHT22;4076;48.076;9.118;2023-02-21T00:16:24;0.40;99.90
8067;DHT22;4076;48.076;9.118;2023-02-21T00:19:08;0.40;99.90
8067;DHT22;4076;48.076;9.118;2023-02-21T00:21:53;0.30;99.90
8067;DHT22;4076;48.076;9.118;2023-02-21T00:24:37;0.30;99.90
8067;DHT22;4076;48.076;9.118;2023-02-21T00:27:24;0.20;99.90
8067;DHT22;4076;48.076;9.118;2023-02-21T00:30:09;0.30;99.90
8067;DHT22;4076;48.076;9.118;2023-02-21T00:32:54;0.30;99.90
8067;DHT22;4076;48.076;9.118;2023-02-21T00:35:37;0.30;99.90
8067;DHT22;4076;48.076;9.118;2023-02-21T00:38:22;0.30;99.90
8067;DHT22;4076;48.076;9.118;2023-02-21T00:41:06;0.40;99.90
8067;DHT22;4076;48.076;9.118;2023-02-21T00:43:50;0.50;99.90
8067;DHT22;4076;48.076;9.118;2023-02-21T00:46:34;0.50;99.90
8067;DHT22;4076;48.076;9.118;2023-02-21T00:49:18;0.40;99.90
8067;DHT22;4076;48.076;9.118;2023-02-21T00:52:02;0.40;99.90
8067;DHT22;4076;48.076;9.118;2023-02-21T00:54:46;0.30;99.90
8067;DHT22;4076;48.076;9.118;2023-02-21T00:57:30;0.20;99.90
8067;DHT22;4076;48.076;9.118;2023-02-21T01:00:21;0.10;99.90
8067;DHT22;4076;48.076;9.118;2023-02-21T01:03:07;0.00;99.90
8067;DHT22;4076;48.076;9.118;2023-02-21T01:05:52;0.00;99.90
8067;DHT22;4076;48.076;9.118;2023-02-21T01:08:40;-0.10;99.90
8067;DHT22;4076;48.076;9.118;2023-02-21T01:11:24;-0.10;99.90
8067;DHT22;4076;48.076;9.118;2023-02-21T01:14:08;-0.20;99.90
8067;DHT22;4076;48.076;9.118;2023-02-21T01:16:53;-0.20;99.90
8067;DHT22;4076;48.076;9.118;2023-02-21T01:19:37;-0.20;99.90
8067;DHT22;4076;48.076;9.118;2023-02-21T01:22:21;-0.20;99.90
8067;DHT22;4076;48.076;9.118;2023-02-21T01:25:05;-0.20;99.90
8067;DHT22;4076;48.076;9.118;2023-02-21T01:27:50;-0.30;99.90
8067;DHT22;4076;48.076;9.118;2023-02-21T01:30:34;-0.40;99.90
8067;DHT22;4076;48.076;9.118;2023-02-21T01:33:18;-0.40;99.90
8067;DHT22;4076;48.076;9.118;2023-02-21T01:36:05;-0.40;99.90
8067;DHT22;4076;48.076;9.118;2023-02-21T01:38:49;-0.30;99.90
8067;DHT22;4076;48.076;9.118;2023-02-21T01:41:33;-0.40;99.90
8067;DHT22;4076;48.076;9.118;2023-02-21T01:47:17;-0.50;99.90
8067;DHT22;4076;48.076;9.118;2023-02-21T01:50:06;-0.50;99.90
8067;DHT22;4076;48.076;9.118;2023-02-21T01:52:51;-0.60;99.90
8067;DHT22;4076;48.076;9.118;2023-02-21T01:55:38;-0.70;99.90
8067;DHT22;4076;48.076;9.118;2023-02-21T01:58:23;-0.70;99.90
8067;DHT22;4076;48.076;9.118;2023-02-21T02:01:11;-0.70;99.90
8067;DHT22;4076;48.076;9.118;2023-02-21T02:03:57;-0.40;99.90
8067;DHT22;4076;48.076;9.118;2023-02-21T02:06:42;-0.60;99.90
8067;DHT22;4076;48.076;9.118;2023-02-21T02:09:26;-0.60;99.90
8067;DHT22;4076;48.076;9.118;2023-02-21T02:12:32;-0.50;99.90
8067;DHT22;4076;48.076;9.118;2023-02-21T02:23:26;-0.30;99.90
8067;DHT22;4076;48.076;9.118;2023-02-21T02:37:08;-0.40;99.90
8067;DHT22;4076;48.076;9.118;2023-02-21T02:39:46;-0.50;99.90
8067;DHT22;4076;48.076;9.118;2023-02-21T02:44:43;-0.70;99.90
8067;DHT22;4076;48.076;9.118;2023-02-21T02:47:18;-0.70;99.90
8067;DHT22;4076;48.076;9.118;2023-02-21T02:49:49;-0.70;99.90
8067;DHT22;4076;48.076;9.118;2023-02-21T02:52:15;-0.70;99.90
8067;DHT22;4076;48.076;9.118;2023-02-21T02:54:41;-0.70;99.90
8067;DHT22;4076;48.076;9.118;2023-02-21T02:57:08;-0.50;99.90
8067;DHT22;4076;48.076;9.118;2023-02-21T02:59:39;-0.50;99.90
8067;DHT22;4076;48.076;9.118;2023-02-21T03:02:12;-0.60;99.90
8067;DHT22;4076;48.076;9.118;2023-02-21T03:05:05;-0.60;99.90
8067;DHT22;4076;48.076;9.118;2023-02-21T03:07:50;-0.70;99.90
8067;DHT22;4076;48.076;9.118;2023-02-21T03:10:39;-0.80;99.90
8067;DHT22;4076;48.076;9.118;2023-02-21T03:13:26;-0.80;99.90
8067;DHT22;4076;48.076;9.118;2023-02-21T03:16:33;-0.80;99.90
8067;DHT22;4076;48.076;9.118;2023-02-21T03:19:10;-0.90;99.90
8067;DHT22;4076;48.076;9.118;2023-02-21T03:21:41;-0.90;99.90
8067;DHT22;4076;48.076;9.118;2023-02-21T03:24:09;-0.90;99.90
8067;DHT22;4076;48.076;9.118;2023-02-21T03:26:37;-0.70;99.90
8067;DHT22;4076;48.076;9.118;2023-02-21T03:29:05;-0.80;99.90
8067;DHT22;4076;48.076;9.118;2023-02-21T03:31:39;-0.80;99.90
8067;DHT22;4076;48.076;9.118;2023-02-21T03:34:06;-0.80;99.90
8067;DHT22;4076;48.076;9.118;2023-02-21T03:36:31;-0.80;99.90
8067;DHT22;4076;48.076;9.118;2023-02-21T03:38:57;-0.80;99.90
8067;DHT22;4076;48.076;9.118;2023-02-21T03:41:23;-0.80;99.90
8067;DHT22;4076;48.076;9.118;2023-02-21T03:43:48;-0.90;99.90
8067;DHT22;4076;48.076;9.118;2023-02-21T03:46:14;-0.90;99.90
8067;DHT22;4076;48.076;9.118;2023-02-21T03:48:39;-0.90;99.90
8067;DHT22;4076;48.076;9.118;2023-02-21T03:51:05;-0.90;99.90
8067;DHT22;4076;48.076;9.118;2023-02-21T03:53:31;-0.90;99.90
8067;DHT22;4076;48.076;9.118;2023-02-21T03:55:56;-0.90;99.90
8067;DHT22;4076;48.076;9.118;2023-02-21T03:58:22;-0.90;99.90
8067;DHT22;4076;48.076;9.118;2023-02-21T04:00:47;-0.50;99.90
8067;DHT22;4076;48.076;9.118;2023-02-21T04:03:14;-0.90;99.90
8067;DHT22;4076;48.076;9.118;2023-02-21T04:05:39;-0.90;99.90
8067;DHT22;4076;48.076;9.118;2023-02-21T04:08:05;-0.90;99.90
8067;DHT22;4076;48.076;9.118;2023-02-21T04:10:31;-0.80;99.90
8067;DHT22;4076;48.076;9.118;2023-02-21T04:12:56;-0.80;99.90
8067;DHT22;4076;48.076;9.118;2023-02-21T04:15:22;-0.70;99.90
8067;DHT22;4076;48.076;9.118;2023-02-21T04:17:48;-0.70;99.90
8067;DHT22;4076;48.076;9.118;2023-02-21T04:20:14;-0.80;99.90
8067;DHT22;4076;48.076;9.118;2023-02-21T04:22:40;-0.80;99.90
8067;DHT22;4076;48.076;9.118;2023-02-21T04:25:06;-0.80;99.90
8067;DHT22;4076;48.076;9.118;2023-02-21T04:27:32;-0.90;99.90
8067;DHT22;4076;48.076;9.118;2023-02-21T04:29:59;-0.80;99.90
8067;DHT22;4076;48.076;9.118;2023-02-21T04:32:24;-0.90;99.90
8067;DHT22;4076;48.076;9.118;2023-02-21T04:34:50;-0.90;99.90
8067;DHT22;4076;48.076;9.118;2023-02-21T04:37:16;-0.80;99.90
8067;DHT22;4076;48.076;9.118;2023-02-21T04:39:41;-0.80;99.90
8067;DHT22;4076;48.076;9.118;2023-02-21T04:42:07;-0.80;99.90
8067;DHT22;4076;48.076;9.118;2023-02-21T04:44:34;-0.80;99.90
8067;DHT22;4076;48.076;9.118;2023-02-21T04:46:59;-0.90;99.90
8067;DHT22;4076;48.076;9.118;2023-02-21T04:49:25;-0.90;99.90
8067;DHT22;4076;48.076;9.118;2023-02-21T04:51:52;-1.00;99.90
8067;DHT22;4076;48.076;9.118;2023-02-21T04:54:18;-1.00;99.90
8067;DHT22;4076;48.076;9.118;2023-02-21T04:56:44;-1.00;99.90
8067;DHT22;4076;48.076;9.118;2023-02-21T04:59:09;-1.00;99.90
8067;DHT22;4076;48.076;9.118;2023-02-21T05:01:35;-1.00;99.90
8067;DHT22;4076;48.076;9.118;2023-02-21T05:04:01;-1.00;99.90
8067;DHT22;4076;48.076;9.118;2023-02-21T05:06:28;-1.00;99.90
8067;DHT22;4076;48.076;9.118;2023-02-21T05:08:55;-1.10;99.90
8067;DHT22;4076;48.076;9.118;2023-02-21T05:11:21;-1.10;99.90
8067;DHT22;4076;48.076;9.118;2023-02-21T05:13:47;-1.10;99.90
8067;DHT22;4076;48.076;9.118;2023-02-21T05:16:13;-1.10;99.90
8067;DHT22;4076;48.076;9.118;2023-02-21T05:18:41;-1.10;99.90
8067;DHT22;4076;48.076;9.118;2023-02-21T05:21:07;-1.00;99.90
8067;DHT22;4076;48.076;9.118;2023-02-21T05:23:33;-1.00;99.90
8067;DHT22;4076;48.076;9.118;2023-02-21T05:26:00;-0.90;99.90
8067;DHT22;4076;48.076;9.118;2023-02-21T05:28:26;-0.90;99.90
8067;DHT22;4076;48.076;9.118;2023-02-21T05:30:52;-0.90;99.90
8067;DHT22;4076;48.076;9.118;2023-02-21T05:33:17;-0.90;99.90
8067;DHT22;4076;48.076;9.118;2023-02-21T05:35:43;-0.80;99.90
8067;DHT22;4076;48.076;9.118;2023-02-21T05:38:12;-0.80;99.90
8067;DHT22;4076;48.076;9.118;2023-02-21T05:40:37;-0.80;99.90
8067;DHT22;4076;48.076;9.118;2023-02-21T05:43:03;-0.90;99.90
8067;DHT22;4076;48.076;9.118;2023-02-21T05:45:28;-0.90;99.90
8067;DHT22;4076;48.076;9.118;2023-02-21T05:47:54;-0.90;99.90
8067;DHT22;4076;48.076;9.118;2023-02-21T05:50:25;-0.90;99.90
8067;DHT22;4076;48.076;9.118;2023-02-21T05:52:51;-1.00;99.90
8067;DHT22;4076;48.076;9.118;2023-02-21T05:55:17;-1.10;99.90
8067;DHT22;4076;48.076;9.118;2023-02-21T05:57:43;-1.10;99.90
8067;DHT22;4076;48.076;9.118;2023-02-21T06:00:26;-1.10;99.90
8067;DHT22;4076;48.076;9.118;2023-02-21T06:02:53;-1.10;99.90
8067;DHT22;4076;48.076;9.118;2023-02-21T06:05:20;-1.10;99.90
8067;DHT22;4076;48.076;9.118;2023-02-21T06:07:46;-1.00;99.90
8067;DHT22;4076;48.076;9.118;2023-02-21T06:10:12;-1.00;99.90
8067;DHT22;4076;48.076;9.118;2023-02-21T06:12:37;-1.00;99.90
8067;DHT22;4076;48.076;9.118;2023-02-21T06:15:03;-1.00;99.90
8067;DHT22;4076;48.076;9.118;2023-02-21T06:17:41;-1.00;99.90
8067;DHT22;4076;48.076;9.118;2023-02-21T06:20:10;-0.90;99.90
8067;DHT22;4076;48.076;9.118;2023-02-21T06:22:36;-0.80;99.90
8067;DHT22;4076;48.076;9.118;2023-02-21T06:25:02;-0.70;99.90
8067;DHT22;4076;48.076;9.118;2023-02-21T06:27:27;-0.70;99.90
8067;DHT22;4076;48.076;9.118;2023-02-21T06:29:53;-0.80;99.90
8067;DHT22;4076;48.076;9.118;2023-02-21T06:32:19;-0.80;99.90
8067;DHT22;4076;48.076;9.118;2023-02-21T06:34:44;-0.80;99.90
8067;DHT22;4076;48.076;9.118;2023-02-21T06:37:10;-0.80;99.90
8067;DHT22;4076;48.076;9.118;2023-02-21T06:39:37;-0.70;99.90
8067;DHT22;4076;48.076;9.118;2023-02-21T06:42:03;-0.60;99.90
8067;DHT22;4076;48.076;9.118;2023-02-21T06:44:29;-0.50;99.90
8067;DHT22;4076;48.076;9.118;2023-02-21T06:46:54;-0.40;99.90
8067;DHT22;4076;48.076;9.118;2023-02-21T06:49:20;-0.30;99.90
8067;DHT22;4076;48.076;9.118;2023-02-21T06:51:46;-0.20;99.90
8067;DHT22;4076;48.076;9.118;2023-02-21T06:54:12;-0.20;99.90
8067;DHT22;4076;48.076;9.118;2023-02-21T06:56:38;-0.10;99.90
8067;DHT22;4076;48.076;9.118;2023-02-21T06:59:04;0.00;99.90
8067;DHT22;4076;48.076;9.118;2023-02-21T07:01:30;0.10;99.90
8067;DHT22;4076;48.076;9.118;2023-02-21T07:03:57;0.20;99.90
8067;DHT22;4076;48.076;9.118;2023-02-21T07:06:23;0.40;99.90
8067;DHT22;4076;48.076;9.118;2023-02-21T07:08:49;0.60;99.90
8067;DHT22;4076;48.076;9.118;2023-02-21T07:11:15;0.70;99.90
8067;DHT22;4076;48.076;9.118;2023-02-21T07:13:41;0.90;99.90
8067;DHT22;4076;48.076;9.118;2023-02-21T07:16:10;1.10;99.90
8067;DHT22;4076;48.076;9.118;2023-02-21T07:18:36;1.70;99.90
8067;DHT22;4076;48.076;9.118;2023-02-21T07:21:01;2.50;99.90
8067;DHT22;4076;48.076;9.118;2023-02-21T07:23:27;3.20;99.90
8067;DHT22;4076;48.076;9.118;2023-02-21T07:25:53;4.00;99.90
8067;DHT22;4076;48.076;9.118;2023-02-21T07:28:18;4.90;99.90
8067;DHT22;4076;48.076;9.118;2023-02-21T07:30:44;5.40;99.90
8067;DHT22;4076;48.076;9.118;2023-02-21T07:33:11;6.10;99.90
8067;DHT22;4076;48.076;9.118;2023-02-21T07:35:36;6.50;99.90
8067;DHT22;4076;48.076;9.118;2023-02-21T07:38:02;7.00;99.90
8067;DHT22;4076;48.076;9.118;2023-02-21T07:40:27;7.70;97.30
8067;DHT22;4076;48.076;9.118;2023-02-21T07:42:53;8.50;90.00
8067;DHT22;4076;48.076;9.118;2023-02-21T07:45:19;9.30;78.90
8067;DHT22;4076;48.076;9.118;2023-02-21T07:47:45;10.40;75.70
8067;DHT22;4076;48.076;9.118;2023-02-21T07:50:11;11.60;67.70
8067;DHT22;4076;48.076;9.118;2023-02-21T07:52:37;13.50;62.70
8067;DHT22;4076;48.076;9.118;2023-02-21T07:55:02;15.50;60.50
8067;DHT22;4076;48.076;9.118;2023-02-21T07:57:28;17.50;51.50
8067;DHT22;4076;48.076;9.118;2023-02-21T07:59:54;19.00;48.90
8067;DHT22;4076;48.076;9.118;2023-02-21T08:02:19;20.30;44.50
8067;DHT22;4076;48.076;9.118;2023-02-21T08:04:49;21.50;39.10
8067;DHT22;4076;48.076;9.118;2023-02-21T08:07:15;22.50;32.60
8067;DHT22;4076;48.076;9.118;2023-02-21T08:09:40;23.30;32.50
8067;DHT22;4076;48.076;9.118;2023-02-21T08:12:06;24.40;30.70
8067;DHT22;4076;48.076;9.118;2023-02-21T08:14:31;24.80;29.00
8067;DHT22;4076;48.076;9.118;2023-02-21T08:16:57;25.80;28.90
8067;DHT22;4076;48.076;9.118;2023-02-21T08:19:23;26.40;27.50
8067;DHT22;4076;48.076;9.118;2023-02-21T08:21:49;26.90;27.60
8067;DHT22;4076;48.076;9.118;2023-02-21T08:24:16;27.60;28.70
8067;DHT22;4076;48.076;9.118;2023-02-21T08:26:42;28.30;44.20
8067;DHT22;4076;48.076;9.118;2023-02-21T08:29:10;28.90;30.70
8067;DHT22;4076;48.076;9.118;2023-02-21T08:31:38;29.10;28.80
8067;DHT22;4076;48.076;9.118;2023-02-21T08:34:05;29.60;28.00
8067;DHT22;4076;48.076;9.118;2023-02-21T08:36:35;30.00;27.60
8067;DHT22;4076;48.076;9.118;2023-02-21T08:39:02;30.00;28.80
8067;DHT22;4076;48.076;9.118;2023-02-21T08:41:36;29.70;28.70
8067;DHT22;4076;48.076;9.118;2023-02-21T08:44:03;29.70;31.40
8067;DHT22;4076;48.076;9.118;2023-02-21T08:46:28;29.90;33.20
8067;DHT22;4076;48.076;9.118;2023-02-21T08:48:54;30.40;31.90
8067;DHT22;4076;48.076;9.118;2023-02-21T08:51:24;30.70;31.20
8067;DHT22;4076;48.076;9.118;2023-02-21T08:53:50;31.40;34.10
8067;DHT22;4076;48.076;9.118;2023-02-21T08:56:20;31.40;35.60
8067;DHT22;4076;48.076;9.118;2023-02-21T09:03:39;33.40;24.90
8067;DHT22;4076;48.076;9.118;2023-02-21T09:08:32;34.70;25.50
8067;DHT22;4076;48.076;9.118;2023-02-21T09:10:57;34.90;24.60
8067;DHT22;4076;48.076;9.118;2023-02-21T09:13:27;35.10;25.70
8067;DHT22;4076;48.076;9.118;2023-02-21T09:15:53;35.80;21.60
8067;DHT22;4076;48.076;9.118;2023-02-21T09:18:19;36.50;23.90
8067;DHT22;4076;48.076;9.118;2023-02-21T09:20:45;37.00;26.10
8067;DHT22;4076;48.076;9.118;2023-02-21T09:23:20;37.00;25.90
8067;DHT22;4076;48.076;9.118;2023-02-21T09:25:47;37.00;24.40
8067;DHT22;4076;48.076;9.118;2023-02-21T09:28:14;37.00;24.20
8067;DHT22;4076;48.076;9.118;2023-02-21T09:30:39;36.80;26.30
8067;DHT22;4076;48.076;9.118;2023-02-21T09:33:05;36.70;26.40
8067;DHT22;4076;48.076;9.118;2023-02-21T09:35:31;36.60;25.40
8067;DHT22;4076;48.076;9.118;2023-02-21T09:37:57;36.30;25.30
8067;DHT22;4076;48.076;9.118;2023-02-21T09:42:53;36.80;24.60
8067;DHT22;4076;48.076;9.118;2023-02-21T09:45:21;37.30;25.80
8067;DHT22;4076;48.076;9.118;2023-02-21T09:47:51;37.60;30.20
8067;DHT22;4076;48.076;9.118;2023-02-21T09:50:24;38.10;30.00
8067;DHT22;4076;48.076;9.118;2023-02-21T09:52:52;38.20;31.70
8067;DHT22;4076;48.076;9.118;2023-02-21T09:55:30;37.90;32.30
8067;DHT22;4076;48.076;9.118;2023-02-21T09:57:58;37.90;28.20
8067;DHT22;4076;48.076;9.118;2023-02-21T10:00:34;37.70;30.40
8067;DHT22;4076;48.076;9.118;2023-02-21T10:10:46;37.20;30.00
8067;DHT22;4076;48.076;9.118;2023-02-21T10:13:37;37.30;30.90
8067;DHT22;4076;48.076;9.118;2023-02-21T10:16:47;37.60;30.90
8067;DHT22;4076;48.076;9.118;2023-02-21T10:19:36;37.80;31.50
8067;DHT22;4076;48.076;9.118;2023-02-21T10:22:19;37.70;30.50
8067;DHT22;4076;48.076;9.118;2023-02-21T10:24:47;37.50;31.20
8067;DHT22;4076;48.076;9.118;2023-02-21T10:27:21;37.20;30.40
8067;DHT22;4076;48.076;9.118;2023-02-21T10:30:00;36.70;31.80
8067;DHT22;4076;48.076;9.118;2023-02-21T10:32:29;36.80;31.90
8067;DHT22;4076;48.076;9.118;2023-02-21T10:34:55;36.70;32.40
8067;DHT22;4076;48.076;9.118;2023-02-21T10:37:50;35.80;31.90
8067;DHT22;4076;48.076;9.118;2023-02-21T10:43:16;34.60;32.50
8067;DHT22;4076;48.076;9.118;2023-02-21T10:48:33;32.70;28.10
8067;DHT22;4076;48.076;9.118;2023-02-21T10:51:09;31.70;26.00
8067;DHT22;4076;48.076;9.118;2023-02-21T10:53:41;30.80;26.80
8067;DHT22;4076;48.076;9.118;2023-02-21T11:01:18;28.40;28.10
8067;DHT22;4076;48.076;9.118;2023-02-21T11:03:50;28.40;28.60
8067;DHT22;4076;48.076;9.118;2023-02-21T11:06:27;28.70;28.30
8067;DHT22;4076;48.076;9.118;2023-02-21T11:08:57;28.50;27.50
8067;DHT22;4076;48.076;9.118;2023-02-21T11:11:38;28.30;28.20
8067;DHT22;4076;48.076;9.118;2023-02-21T11:16:41;27.90;28.40
8067;DHT22;4076;48.076;9.118;2023-02-21T11:19:11;27.80;26.50
8067;DHT22;4076;48.076;9.118;2023-02-21T11:21:37;27.20;26.30
8067;DHT22;4076;48.076;9.118;2023-02-21T11:24:04;27.10;25.50
8067;DHT22;4076;48.076;9.118;2023-02-21T11:29:17;26.90;25.40
8067;DHT22;4076;48.076;9.118;2023-02-21T11:31:43;27.70;25.70
8067;DHT22;4076;48.076;9.118;2023-02-21T11:34:12;28.20;25.20
8067;DHT22;4076;48.076;9.118;2023-02-21T11:36:42;29.20;24.90
8067;DHT22;4076;48.076;9.118;2023-02-21T11:39:21;29.70;24.60
8067;DHT22;4076;48.076;9.118;2023-02-21T11:41:48;29.70;22.30
8067;DHT22;4076;48.076;9.118;2023-02-21T11:44:35;29.30;23.30
8067;DHT22;4076;48.076;9.118;2023-02-21T11:47:15;29.10;23.20
8067;DHT22;4076;48.076;9.118;2023-02-21T11:49:55;29.40;23.10
8067;DHT22;4076;48.076;9.118;2023-02-21T11:52:33;29.90;22.30
8067;DHT22;4076;48.076;9.118;2023-02-21T11:55:01;29.40;22.50
8067;DHT22;4076;48.076;9.118;2023-02-21T12:05:34;28.30;23.50
8067;DHT22;4076;48.076;9.118;2023-02-21T12:11:07;25.20;25.20
8067;DHT22;4076;48.076;9.118;2023-02-21T12:19:29;21.80;27.30
8067;DHT22;4076;48.076;9.118;2023-02-21T12:22:23;21.20;27.70
8067;DHT22;4076;48.076;9.118;2023-02-21T12:28:14;20.30;27.90
8067;DHT22;4076;48.076;9.118;2023-02-21T12:42:35;20.10;28.00
8067;DHT22;4076;48.076;9.118;2023-02-21T12:45:20;20.00;27.20
8067;DHT22;4076;48.076;9.118;2023-02-21T12:48:10;19.70;27.30
8067;DHT22;4076;48.076;9.118;2023-02-21T12:50:42;19.60;28.20
8067;DHT22;4076;48.076;9.118;2023-02-21T12:53:16;19.50;28.20
8067;DHT22;4076;48.076;9.118;2023-02-21T13:01:46;19.20;29.00
8067;DHT22;4076;48.076;9.118;2023-02-21T13:09:33;19.00;27.80
8067;DHT22;4076;48.076;9.118;2023-02-21T13:14:48;18.80;28.30
8067;DHT22;4076;48.076;9.118;2023-02-21T13:17:16;18.80;29.10
8067;DHT22;4076;48.076;9.118;2023-02-21T13:19:52;18.90;28.80
8067;DHT22;4076;48.076;9.118;2023-02-21T13:22:37;18.80;27.90
8067;DHT22;4076;48.076;9.118;2023-02-21T13:25:35;18.80;28.50
8067;DHT22;4076;48.076;9.118;2023-02-21T13:28:18;18.70;27.80
8067;DHT22;4076;48.076;9.118;2023-02-21T13:30:50;18.50;27.20
8067;DHT22;4076;48.076;9.118;2023-02-21T13:35:57;18.30;27.90
8067;DHT22;4076;48.076;9.118;2023-02-21T13:38:26;18.30;27.80
8067;DHT22;4076;48.076;9.118;2023-02-21T13:41:02;18.30;27.50
8067;DHT22;4076;48.076;9.118;2023-02-21T13:43:31;18.10;27.60
8067;DHT22;4076;48.076;9.118;2023-02-21T13:57:47;18.10;28.50
8067;DHT22;4076;48.076;9.118;2023-02-21T14:03:02;18.00;28.90
8067;DHT22;4076;48.076;9.118;2023-02-21T14:08:47;17.80;28.80
8067;DHT22;4076;48.076;9.118;2023-02-21T14:11:20;17.70;28.70
8067;DHT22;4076;48.076;9.118;2023-02-21T14:18:46;17.50;29.00
8067;DHT22;4076;48.076;9.118;2023-02-21T14:26:47;17.60;29.50
8067;DHT22;4076;48.076;9.118;2023-02-21T14:34:36;17.30;30.20
8067;DHT22;4076;48.076;9.118;2023-02-21T14:37:11;17.20;30.70
8067;DHT22;4076;48.076;9.118;2023-02-21T14:39:45;17.10;29.50
8067;DHT22;4076;48.076;9.118;2023-02-21T14:56:44;16.90;30.30
8067;DHT22;4076;48.076;9.118;2023-02-21T14:59:44;17.00;30.90
8067;DHT22;4076;48.076;9.118;2023-02-21T15:05:27;17.10;30.60
8067;DHT22;4076;48.076;9.118;2023-02-21T15:08:03;17.10;31.50
8067;DHT22;4076;48.076;9.118;2023-02-21T15:10:32;17.10;31.00
8067;DHT22;4076;48.076;9.118;2023-02-21T15:13:04;17.00;30.90
8067;DHT22;4076;48.076;9.118;2023-02-21T15:15:37;17.00;32.90
8067;DHT22;4076;48.076;9.118;2023-02-21T15:18:06;16.90;34.60
8067;DHT22;4076;48.076;9.118;2023-02-21T15:20:42;16.70;34.80
8067;DHT22;4076;48.076;9.118;2023-02-21T15:25:34;16.50;34.90
8067;DHT22;4076;48.076;9.118;2023-02-21T15:28:02;16.40;34.90
8067;DHT22;4076;48.076;9.118;2023-02-21T15:30:39;16.40;35.90
8067;DHT22;4076;48.076;9.118;2023-02-21T15:33:19;16.20;39.40
8067;DHT22;4076;48.076;9.118;2023-02-21T15:35:52;15.90;38.20
8067;DHT22;4076;48.076;9.118;2023-02-21T15:46:55;15.00;40.60
8067;DHT22;4076;48.076;9.118;2023-02-21T15:49:33;14.80;41.00
8067;DHT22;4076;48.076;9.118;2023-02-21T15:52:03;14.60;40.70
8067;DHT22;4076;48.076;9.118;2023-02-21T15:54:39;14.50;41.20
8067;DHT22;4076;48.076;9.118;2023-02-21T15:59:37;14.10;42.70
8067;DHT22;4076;48.076;9.118;2023-02-21T16:02:14;13.90;43.30
8067;DHT22;4076;48.076;9.118;2023-02-21T16:04:44;13.60;43.50
8067;DHT22;4076;48.076;9.118;2023-02-21T16:07:31;13.50;43.10
8067;DHT22;4076;48.076;9.118;2023-02-21T16:10:07;13.30;43.40
8067;DHT22;4076;48.076;9.118;2023-02-21T16:12:42;13.00;43.70
8067;DHT22;4076;48.076;9.118;2023-02-21T16:17:54;12.50;44.20
8067;DHT22;4076;48.076;9.118;2023-02-21T16:20:26;12.30;44.30
8067;DHT22;4076;48.076;9.118;2023-02-21T16:26:01;12.00;44.70
8067;DHT22;4076;48.076;9.118;2023-02-21T16:28:29;11.90;44.90
8067;DHT22;4076;48.076;9.118;2023-02-21T16:30:57;11.80;44.90
8067;DHT22;4076;48.076;9.118;2023-02-21T16:33:26;11.70;45.30
8067;DHT22;4076;48.076;9.118;2023-02-21T16:35:52;11.50;45.60
8067;DHT22;4076;48.076;9.118;2023-02-21T16:38:21;11.30;45.70
8067;DHT22;4076;48.076;9.118;2023-02-21T16:40:47;11.10;46.10
8067;DHT22;4076;48.076;9.118;2023-02-21T16:43:19;10.90;46.40
8067;DHT22;4076;48.076;9.118;2023-02-21T16:45:46;10.70;46.90
8067;DHT22;4076;48.076;9.118;2023-02-21T16:48:28;10.50;46.60
8067;DHT22;4076;48.076;9.118;2023-02-21T16:50:58;10.30;47.30
8067;DHT22;4076;48.076;9.118;2023-02-21T16:53:24;10.10;47.60
8067;DHT22;4076;48.076;9.118;2023-02-21T16:55:50;10.00;47.80
8067;DHT22;4076;48.076;9.118;2023-02-21T16:58:31;9.80;48.90
8067;DHT22;4076;48.076;9.118;2023-02-21T17:01:07;9.60;48.80
8067;DHT22;4076;48.076;9.118;2023-02-21T17:03:35;9.50;49.30
8067;DHT22;4076;48.076;9.118;2023-02-21T17:06:01;9.40;49.50
8067;DHT22;4076;48.076;9.118;2023-02-21T17:08:26;9.30;49.60
8067;DHT22;4076;48.076;9.118;2023-02-21T17:10:53;9.20;50.00
8067;DHT22;4076;48.076;9.118;2023-02-21T17:13:18;9.00;50.10
8067;DHT22;4076;48.076;9.118;2023-02-21T17:15:44;8.90;50.60
8067;DHT22;4076;48.076;9.118;2023-02-21T17:18:12;8.80;50.70
8067;DHT22;4076;48.076;9.118;2023-02-21T17:20:38;8.70;50.60
8067;DHT22;4076;48.076;9.118;2023-02-21T17:23:03;8.60;50.70
8067;DHT22;4076;48.076;9.118;2023-02-21T17:25:30;8.40;51.20
8067;DHT22;4076;48.076;9.118;2023-02-21T17:27:57;8.20;51.20
8067;DHT22;4076;48.076;9.118;2023-02-21T17:30:23;8.00;51.80
8067;DHT22;4076;48.076;9.118;2023-02-21T17:32:49;7.80;52.00
8067;DHT22;4076;48.076;9.118;2023-02-21T17:35:17;7.70;52.20
8067;DHT22;4076;48.076;9.118;2023-02-21T17:37:44;7.60;52.60
8067;DHT22;4076;48.076;9.118;2023-02-21T17:40:12;7.50;52.60
8067;DHT22;4076;48.076;9.118;2023-02-21T17:42:38;7.40;53.10
8067;DHT22;4076;48.076;9.118;2023-02-21T17:45:05;7.40;53.00
8067;DHT22;4076;48.076;9.118;2023-02-21T17:47:31;7.30;53.40
8067;DHT22;4076;48.076;9.118;2023-02-21T17:49:57;7.20;54.10
8067;DHT22;4076;48.076;9.118;2023-02-21T17:52:25;7.00;54.60
8067;DHT22;4076;48.076;9.118;2023-02-21T17:54:51;7.00;54.60
8067;DHT22;4076;48.076;9.118;2023-02-21T17:57:17;6.90;53.90
8067;DHT22;4076;48.076;9.118;2023-02-21T17:59:43;6.90;53.90
8067;DHT22;4076;48.076;9.118;2023-02-21T18:02:10;6.90;53.90
8067;DHT22;4076;48.076;9.118;2023-02-21T18:04:37;6.90;54.00
8067;DHT22;4076;48.076;9.118;2023-02-21T18:07:03;6.70;54.40
8067;DHT22;4076;48.076;9.118;2023-02-21T18:09:29;6.60;54.60
8067;DHT22;4076;48.076;9.118;2023-02-21T18:11:56;6.40;54.90
8067;DHT22;4076;48.076;9.118;2023-02-21T18:14:23;6.30;55.00
8067;DHT22;4076;48.076;9.118;2023-02-21T18:16:50;6.30;55.40
8067;DHT22;4076;48.076;9.118;2023-02-21T18:19:17;6.10;55.40
8067;DHT22;4076;48.076;9.118;2023-02-21T18:21:46;6.00;55.40
8067;DHT22;4076;48.076;9.118;2023-02-21T18:24:13;5.90;55.70
8067;DHT22;4076;48.076;9.118;2023-02-21T18:26:39;5.80;56.20
8067;DHT22;4076;48.076;9.118;2023-02-21T18:29:06;5.80;56.70
8067;DHT22;4076;48.076;9.118;2023-02-21T18:31:33;5.70;56.90
8067;DHT22;4076;48.076;9.118;2023-02-21T18:34:00;5.60;57.30
8067;DHT22;4076;48.076;9.118;2023-02-21T18:36:25;5.50;57.60
8067;DHT22;4076;48.076;9.118;2023-02-21T18:38:51;5.50;57.90
8067;DHT22;4076;48.076;9.118;2023-02-21T18:41:19;5.40;58.30
8067;DHT22;4076;48.076;9.118;2023-02-21T18:43:45;5.40;58.50
8067;DHT22;4076;48.076;9.118;2023-02-21T18:46:14;5.40;58.50
8067;DHT22;4076;48.076;9.118;2023-02-21T18:48:42;5.30;58.80
8067;DHT22;4076;48.076;9.118;2023-02-21T18:51:09;5.40;58.40
8067;DHT22;4076;48.076;9.118;2023-02-21T18:53:35;5.30;59.40
8067;DHT22;4076;48.076;9.118;2023-02-21T18:56:01;5.20;59.90
8067;DHT22;4076;48.076;9.118;2023-02-21T18:58:27;5.10;60.20
8067;DHT22;4076;48.076;9.118;2023-02-21T19:00:53;5.00;61.30
8067;DHT22;4076;48.076;9.118;2023-02-21T19:03:18;4.90;61.20
8067;DHT22;4076;48.076;9.118;2023-02-21T19:05:44;4.90;62.80
8067;DHT22;4076;48.076;9.118;2023-02-21T19:08:10;4.80;62.50
8067;DHT22;4076;48.076;9.118;2023-02-21T19:10:35;4.80;62.60
8067;DHT22;4076;48.076;9.118;2023-02-21T19:13:01;4.80;62.70
8067;DHT22;4076;48.076;9.118;2023-02-21T19:15:28;4.70;64.00
8067;DHT22;4076;48.076;9.118;2023-02-21T19:17:57;4.70;65.20
8067;DHT22;4076;48.076;9.118;2023-02-21T19:20:23;4.60;66.50
8067;DHT22;4076;48.076;9.118;2023-02-21T19:22:49;4.50;67.80
8067;DHT22;4076;48.076;9.118;2023-02-21T19:25:17;4.50;69.50
8067;DHT22;4076;48.076;9.118;2023-02-21T19:27:43;4.50;71.10
8067;DHT22;4076;48.076;9.118;2023-02-21T19:30:10;4.40;71.90
8067;DHT22;4076;48.076;9.118;2023-02-21T19:32:36;4.30;72.50